Air Resources Laboratory banner image
Air Resources Laboratory web site National Oceanic and Atmospheric Administration (NOAA)

nm metar


KABQ 181752Z 35007KT 10SM BKN045 BKN065 BKN250 04/M05 A3019 RMK AO2 SLP219 MTN
 TOPS OBSC NE AND SE T00391050 10039 21011 51004=
KAEG 181747Z 03008KT 10SM BKN060 04/M02 A3020=
KALM 181755Z AUTO 00000KT 10SM CLR 09/05 A3018 RMK AO2=
KATS 181755Z AUTO 00000KT 10SM FEW100 FEW120 12/01 A3013 RMK AO2=
KCAO 181755Z AUTO 23017G23KT 10SM CLR 14/M11 A3003 RMK AO2 SLP156 T01441106
 10144 21006 58007=
KCNM 181753Z AUTO 04003KT 10SM OVC100 11/03 A3012 RMK AO2 SLP180 T01110028
 10117 20033 50003=
KCQC 181753Z AUTO 29011KT 10SM CLR 07/M06 A3016 RMK AO2 SLP202 T00721056 10072
 21044 50001=
KCVN 181756Z AUTO VRB06KT 10SM CLR 14/01 A3014 RMK AO2 SLP209 T01390006 10144
 21033 50002=
KCVS 181758Z AUTO 22006KT 10SM CLR 13/00 A3014 RMK AO2 SLP196 T01340004 10134
 21015 50005 $=
KDMN 181753Z AUTO 00000KT 10SM BKN015 OVC028 08/05 A3019 RMK AO2 SLP200 60001
 T00830050 10083 20039 53017=
KFMN 181753Z 11003KT 10SM CLR 00/M13 A3022 RMK AO2 SLP263 T00001133 10006 21122
 50006 $=
KGNT 181755Z AUTO 33008KT 10SM SCT080 05/M13 A3021 RMK AO2 T00451133 10045
 21113=
KGUP 181753Z AUTO 00000KT 10SM CLR 04/M13 A3020 RMK AO2 SLP242 T00391133 10044
 21128 53001=
KHMN 181758Z AUTO 30003KT 10SM FEW100 12/09 A3019 RMK AO2 SLP197 T01230086
 10123 20024 52011 $=
KHOB 181750Z VRB04KT 10SM SKC 13/02 A3013=
KLAM 181755Z AUTO 09006KT 10SM CLR 03/M12 A3020 RMK AO2 T00251124 10035 21027=
KLRU 181755Z AUTO 00000KT 10SM SCT008 OVC014 08/06 A3020 RMK AO2 T00800059
 10081 20025=
KLVS 181753Z AUTO 20014KT 10SM CLR 09/M11 A3011 RMK AO2 SLP160 T00941111 10094
 21061 58003=
KONM 181755Z AUTO 35007KT 10SM -DZ SCT037 BKN044 OVC050 03/01 A3021 RMK AO2
 T00330012 10033 21007=
KROW 181751Z 00000KT 10SM FEW120 11/01 A3012 RMK AO2 SLP176 T01110011 10111
 20028 58003=
KRTN 181753Z AUTO 00000KT 10SM CLR 06/M11 A3007 RMK AO2 SLP189 T00561111 10056
 21111 50000=
KSAF 181753Z 35012KT 10SM CLR 02/M10 A3017 RMK AO2 SLP210 T00221100 10022 21067
 50001=
KSKX 181756Z AUTO 00000KT 10SM CLR 03/M12 A3021 RMK AO2 SLP255 T00331117 10033
 21139 58002 $=
KSRR 181755Z AUTO 15006KT 10SM CLR 08/00 A3019 RMK AO2=
KSVC 181755Z AUTO 17005KT 10SM BKN015 BKN021 BKN029 07/03 A3019 RMK AO2 60002
 T00660027 10066 21002=
KTCC 181753Z AUTO 23009KT 10SM CLR 14/M01 A3009 RMK AO2 SLP175 T01441006 10144
 21011 50002=
KTCS 181753Z AUTO 03004KT 10SM OVC024 06/03 A3018 RMK AO2 SLP204 60002
 T00610033 10061 20028 51017=